Terminal Aerodrome Forecast
Issued by NWS Wakefield, VA

Home | Current Version | Previous Version | Text Only | Print | Product List | Glossary On
Versions: 1 2 3 4 5 6 7 8 9 10 11 12 13 14 15 16 17 18 19 20 21 22 23 24 25 26
000
FTUS41 KAKQ 210338 AAA
TAFSBY
TAF AMD
KSBY 210338Z 2104/2124 09004KT P6SM SCT015 BKN025
     FM210500 09007KT 4SM -RA BR OVC015
     FM210900 12009KT 4SM -RA BR SCT004 OVC007
      TEMPO 2109/2112 BKN004
     FM211500 11013G20KT 4SM -RA BR OVC010
     FM212100 14013G20KT P6SM -SHRA OVC015=

USA.gov is the U.S. government's official web portal to all federal, state and local government web resources and services.